Terminal Aerodrome Forecast
Issued by NWS Portland, OR

Home | Current Version | Previous Version | Text Only | Print | Product List | Glossary On
Versions: 1 2 3 4 5 6 7 8 9 10 11 12 13 14 15
000
FTUS46 KPQR 241720
TAFAST
TAF
KAST 241720Z 2418/2518 07010KT P6SM SKC
     FM242000 03010KT P6SM SKC
     FM242200 01010KT P6SM SKC
     FM242300 35010G20KT P6SM SKC
     FM250400 VRB04KT P6SM SKC
     FM251500 17006KT 5SM BR SCT003 BKN006
     FM251700 19007KT 6SM BR SCT006 BKN012=

USA.gov is the U.S. government's official web portal to all federal, state and local government web resources and services.